Time;durP1;ratioP1;P1;durP2;ratioP2;P2;SDS_P1;SDS_P2;PMS_P1;PMS_P2;Temp;Humidity;BMP_temperature;BMP_pressure;BME280_temperature;BME280_humidity;BME280_pressure;Samples;Min_cycle;Max_cycle;Signal;HPM_P1;HPM_P2
2023/08/16 00:00:20;;;;;;;;;;;;;;;22.64;58.15;100824.41;4936432;28;7027;-72
2023/08/16 00:02:45;;;;;;;;;;;;;;;22.63;57.87;100822.66;4937705;28;6975;-72
2023/08/16 00:05:11;;;;;;;;;;;;;;;22.63;58.56;100833.13;4959777;28;6915;-72
2023/08/16 00:07:37;;;;;;;;;;;;;;;22.60;58.34;100832.25;4949458;28;6788;-72
2023/08/16 00:10:03;;;;;;;;;;;;;;;22.58;58.40;100835.69;4960667;28;6835;-72
2023/08/16 00:12:28;;;;;;;;;;;;;;;22.53;58.69;100822.63;4963934;28;6787;-72
2023/08/16 00:14:54;;;;;;;;;;;;;;;22.51;58.58;100826.06;4940704;28;6844;-72
2023/08/16 00:17:19;;;;;;;;;;;;;;;22.48;58.94;100826.91;4974811;28;7892;-72
2023/08/16 00:19:45;;;;;;;;;;;;;;;22.46;58.91;100820.78;4938972;28;6965;-72
2023/08/16 00:22:10;;;;;;;;;;;;;;;22.44;58.79;100819.94;4942970;28;6999;-72
2023/08/16 00:24:36;;;;;;;;;;;;;;;22.41;58.97;100823.38;4944075;28;7135;-72
2023/08/16 00:27:03;;;;;;;;;;;;;;;22.41;59.28;100822.53;4961092;28;6919;-72
2023/08/16 00:29:28;;;;;;;;;;;;;;;22.39;59.53;100825.13;4960895;28;7015;-72
2023/08/16 00:31:54;;;;;;;;;;;;;;;22.37;59.57;100820.75;4941918;28;6788;-72
2023/08/16 00:34:19;;;;;;;;;;;;;;;22.36;59.75;100812.06;4957009;28;6847;-72
2023/08/16 00:36:44;;;;;;;;;;;;;;;22.36;59.44;100824.22;4956528;28;7050;-72
2023/08/16 00:39:10;;;;;;;;;;;;;;;22.34;59.67;100819.88;4944843;28;6970;-72
2023/08/16 00:41:35;;;;;;;;;;;;;;;22.33;59.87;100819.84;4937287;28;7182;-72
2023/08/16 00:44:01;;;;;;;;;;;;;;;22.31;59.88;100819.88;4959893;28;7082;-72
2023/08/16 00:46:30;;;;;;;;;;;;;;;22.28;60.02;100814.59;4939444;28;6884;-72
2023/08/16 00:48:55;;;;;;;;;;;;;;;22.27;59.94;100820.69;4942148;28;7147;-72
2023/08/16 00:51:21;;;;;;;;;;;;;;;22.24;59.84;100817.19;4942812;28;6987;-72
2023/08/16 00:53:47;;;;;;;;;;;;;;;22.20;59.39;100821.50;4959681;28;6802;-72
2023/08/16 00:56:14;;;;;;;;;;;;;;;22.15;59.48;100823.22;4959655;28;6783;-72
2023/08/16 00:58:40;;;;;;;;;;;;;;;22.10;59.56;100819.69;4961180;28;6792;-72
2023/08/16 01:01:05;;;;;;;;;;;;;;;22.06;60.06;100817.06;4954970;28;6881;-72
2023/08/16 01:03:31;;;;;;;;;;;;;;;22.01;59.72;100816.16;4956575;28;7138;-72
2023/08/16 01:05:57;;;;;;;;;;;;;;;21.96;60.05;100817.88;4976959;28;7978;-73
2023/08/16 01:08:22;;;;;;;;;;;;;;;21.92;59.80;100818.69;4962271;28;6792;-72
2023/08/16 01:11:38;;;;;;;;;;;;;;;21.84;60.23;100823.00;4954054;28;6983;-72
2023/08/16 01:14:13;;;;;;;;;;;;;;;21.76;60.26;100823.81;4942962;28;7209;-72
2023/08/16 01:16:39;;;;;;;;;;;;;;;21.73;60.11;100826.41;4961709;28;6959;-72
2023/08/16 01:19:16;;;;;;;;;;;;;;;21.69;60.48;100832.44;4941644;28;6816;-72
2023/08/16 01:21:47;;;;;;;;;;;;;;;21.65;60.40;100830.63;4960999;28;6833;-72
2023/08/16 01:24:22;;;;;;;;;;;;;;;21.60;60.34;100832.31;4942123;28;7034;-72
2023/08/16 01:26:49;;;;;;;;;;;;;;;21.58;60.78;100828.84;4958947;28;7051;-72
2023/08/16 01:29:17;;;;;;;;;;;;;;;21.54;60.83;100837.50;4944996;28;7178;-72
2023/08/16 01:31:44;;;;;;;;;;;;;;;21.53;61.03;100841.81;4942816;28;6812;-72
2023/08/16 01:34:09;;;;;;;;;;;;;;;21.52;60.87;100853.13;4961679;28;7239;-72
2023/08/16 01:36:35;;;;;;;;;;;;;;;21.49;60.97;100843.53;4943688;28;7115;-72
2023/08/16 01:39:00;;;;;;;;;;;;;;;21.48;61.28;100836.56;4981228;28;7140;-72
2023/08/16 01:41:46;;;;;;;;;;;;;;;21.46;61.06;100846.09;4975990;28;6801;-72
2023/08/16 01:44:13;;;;;;;;;;;;;;;21.45;61.41;100843.47;4959575;28;6879;-72
2023/08/16 01:46:39;;;;;;;;;;;;;;;21.43;61.49;100846.06;4963366;28;6812;-72
2023/08/16 01:49:06;;;;;;;;;;;;;;;21.42;61.24;100846.06;4941754;28;7034;-73
2023/08/16 01:51:32;;;;;;;;;;;;;;;21.41;61.33;100852.13;4947086;28;7257;-72
2023/08/16 01:53:57;;;;;;;;;;;;;;;21.39;61.50;100849.50;4964501;28;7082;-72
2023/08/16 01:56:23;;;;;;;;;;;;;;;21.38;61.69;100852.97;4959386;28;6768;-72
2023/08/16 01:58:49;;;;;;;;;;;;;;;21.35;61.67;100847.75;4945125;28;7311;-72
2023/08/16 02:01:15;;;;;;;;;;;;;;;21.32;61.67;100845.97;4962065;28;6967;-73
2023/08/16 02:03:40;;;;;;;;;;;;;;;21.30;61.70;100847.69;4943231;28;7127;-72
2023/08/16 02:06:06;;;;;;;;;;;;;;;21.29;61.69;100851.13;4959405;28;8312;-72
2023/08/16 02:08:31;;;;;;;;;;;;;;;21.27;62.06;100846.78;4960179;28;6867;-72
2023/08/16 02:10:56;;;;;;;;;;;;;;;21.25;61.84;100851.09;4968253;28;6803;-70
2023/08/16 02:13:22;;;;;;;;;;;;;;;21.25;62.26;100854.56;4952120;28;7061;-69
2023/08/16 02:15:47;;;;;;;;;;;;;;;21.23;62.10;100856.28;4945653;28;6783;-70
2023/08/16 02:18:13;;;;;;;;;;;;;;;21.22;62.00;100851.94;4942750;28;6852;-70
2023/08/16 02:20:40;;;;;;;;;;;;;;;21.19;61.94;100847.56;4963282;28;6776;-71
2023/08/16 02:23:06;;;;;;;;;;;;;;;21.18;62.38;100851.03;4962685;28;6892;-71
2023/08/16 02:25:32;;;;;;;;;;;;;;;21.18;62.33;100852.75;4963050;28;6815;-70
2023/08/16 02:27:57;;;;;;;;;;;;;;;21.18;62.04;100844.94;4960351;28;7028;-70
2023/08/16 02:30:23;;;;;;;;;;;;;;;21.17;62.60;100844.06;4944473;28;6796;-71
2023/08/16 02:32:48;;;;;;;;;;;;;;;21.17;62.00;100845.78;4945413;28;6860;-70
2023/08/16 02:35:14;;;;;;;;;;;;;;;21.17;62.50;100844.06;4963120;28;6958;-71
2023/08/16 02:37:43;;;;;;;;;;;;;;;21.18;62.40;100840.59;4949071;28;6780;-70
2023/08/16 02:40:09;;;;;;;;;;;;;;;21.18;62.22;100838.00;4943381;28;7091;-71
2023/08/16 02:42:35;;;;;;;;;;;;;;;21.18;62.03;100845.81;4965882;28;6792;-71
2023/08/16 02:45:00;;;;;;;;;;;;;;;21.17;62.17;100849.28;4943104;28;8694;-72
2023/08/16 02:47:26;;;;;;;;;;;;;;;21.14;61.86;100843.16;4945568;28;7175;-72
2023/08/16 02:49:52;;;;;;;;;;;;;;;21.13;62.24;100833.59;4963507;28;6800;-72
2023/08/16 02:52:18;;;;;;;;;;;;;;;21.09;62.11;100830.94;4979046;28;6903;-72
2023/08/16 02:54:43;;;;;;;;;;;;;;;21.08;61.96;100837.00;4979043;28;6875;-72
2023/08/16 02:57:09;;;;;;;;;;;;;;;21.06;62.12;100830.06;4959236;28;6800;-72
2023/08/16 02:59:43;;;;;;;;;;;;;;;21.05;61.98;100838.69;4960620;28;6800;-71
2023/08/16 03:02:08;;;;;;;;;;;;;;;21.02;61.90;100838.66;4974477;28;6807;-72
2023/08/16 03:04:39;;;;;;;;;;;;;;;21.01;62.15;100839.53;4958190;28;10354;-72
2023/08/16 03:07:06;;;;;;;;;;;;;;;20.99;61.99;100838.66;4952980;28;6828;-72
2023/08/16 03:09:31;;;;;;;;;;;;;;;20.99;62.01;100839.50;4976717;28;7101;-73
2023/08/16 03:11:57;;;;;;;;;;;;;;;21.00;62.14;100840.38;4941622;28;7110;-72
2023/08/16 03:14:22;;;;;;;;;;;;;;;21.00;61.73;100841.25;4978356;28;6783;-72
2023/08/16 03:16:48;;;;;;;;;;;;;;;21.02;62.14;100841.28;4980842;28;6938;-73
2023/08/16 03:19:14;;;;;;;;;;;;;;;21.03;62.34;100838.69;4944071;28;7332;-72
2023/08/16 03:21:40;;;;;;;;;;;;;;;21.06;62.23;100830.91;4965301;28;7262;-72
2023/08/16 03:24:05;;;;;;;;;;;;;;;21.11;62.42;100837.91;4954972;28;10020;-72
2023/08/16 03:26:31;;;;;;;;;;;;;;;21.16;62.03;100842.31;4973120;28;7177;-72
2023/08/16 03:28:56;;;;;;;;;;;;;;;21.21;62.33;100844.97;4963075;28;6812;-72
2023/08/16 03:31:22;;;;;;;;;;;;;;;21.26;62.23;100839.81;4979040;28;6844;-72
2023/08/16 03:33:48;;;;;;;;;;;;;;;21.32;62.21;100840.75;4964065;28;6784;-72
2023/08/16 03:36:13;;;;;;;;;;;;;;;21.37;62.25;100844.25;4961832;28;7466;-72
2023/08/16 03:38:41;;;;;;;;;;;;;;;21.43;62.38;100840.84;4963797;28;7026;-71
2023/08/16 03:41:07;;;;;;;;;;;;;;;21.49;62.57;100840.91;4981267;28;6812;-72
2023/08/16 03:43:36;;;;;;;;;;;;;;;21.54;62.11;100843.56;4945683;28;7150;-72
2023/08/16 03:46:05;;;;;;;;;;;;;;;21.59;62.42;100843.63;4958192;28;6896;-72
2023/08/16 03:48:31;;;;;;;;;;;;;;;21.65;62.42;100848.91;4942051;28;7823;-72
2023/08/16 03:50:57;;;;;;;;;;;;;;;21.70;61.86;100849.84;4958862;28;6883;-72
2023/08/16 03:53:22;;;;;;;;;;;;;;;21.77;62.21;100849.03;4941561;28;6796;-72
2023/08/16 03:55:48;;;;;;;;;;;;;;;21.80;61.42;100856.03;4958472;28;6891;-72
2023/08/16 03:58:14;;;;;;;;;;;;;;;21.85;61.52;100853.44;4956359;28;7373;-72
2023/08/16 04:00:40;;;;;;;;;;;;;;;21.91;61.68;100856.09;4973221;28;7206;-71
2023/08/16 04:03:06;;;;;;;;;;;;;;;21.96;61.24;100858.75;4969894;28;6858;-72
2023/08/16 04:05:32;;;;;;;;;;;;;;;21.99;61.14;100850.97;4958191;28;6780;-72
2023/08/16 04:07:58;;;;;;;;;;;;;;;21.99;61.10;100854.41;4960275;28;6804;-72
2023/08/16 04:10:23;;;;;;;;;;;;;;;22.00;61.08;100857.91;4939433;28;6788;-72
2023/08/16 04:12:49;;;;;;;;;;;;;;;22.00;61.02;100863.13;4959638;28;7292;-72
2023/08/16 04:15:14;;;;;;;;;;;;;;;22.00;60.88;100856.16;4979686;28;6784;-72
2023/08/16 04:17:40;;;;;;;;;;;;;;;22.03;60.90;100863.16;4965092;28;6876;-72
2023/08/16 04:20:06;;;;;;;;;;;;;;;22.05;60.92;100853.59;4937427;28;6970;-72
2023/08/16 04:22:32;;;;;;;;;;;;;;;22.08;60.26;100850.13;4941674;28;6804;-72
2023/08/16 04:24:57;;;;;;;;;;;;;;;22.08;60.63;100861.47;4946311;28;6777;-72
2023/08/16 04:27:23;;;;;;;;;;;;;;;22.08;60.48;100856.25;4962388;28;7024;-72
2023/08/16 04:29:48;;;;;;;;;;;;;;;22.08;60.62;100869.28;4972917;28;6788;-71
2023/08/16 04:32:14;;;;;;;;;;;;;;;22.10;60.21;100861.47;4961228;28;6919;-72
2023/08/16 04:34:39;;;;;;;;;;;;;;;22.11;60.40;100861.47;4960048;28;7273;-71
2023/08/16 04:37:05;;;;;;;;;;;;;;;22.15;60.27;100858.00;4962378;28;6792;-72
2023/08/16 04:39:30;;;;;;;;;;;;;;;22.19;60.37;100857.19;4945005;28;7221;-72
2023/08/16 04:41:56;;;;;;;;;;;;;;;22.23;60.33;100857.22;4960609;28;6788;-72
2023/08/16 04:44:21;;;;;;;;;;;;;;;22.25;60.27;100858.09;4962559;28;6795;-71
2023/08/16 04:46:47;;;;;;;;;;;;;;;22.28;60.14;100852.91;4964560;28;6864;-72
2023/08/16 04:49:13;;;;;;;;;;;;;;;22.33;60.12;100864.25;4956172;28;7066;-71
2023/08/16 04:51:38;;;;;;;;;;;;;;;22.34;59.59;100858.16;4959452;28;7760;-72
2023/08/16 04:54:04;;;;;;;;;;;;;;;22.36;59.78;100863.38;4944041;28;6998;-72
2023/08/16 04:56:29;;;;;;;;;;;;;;;22.36;59.84;100861.66;4956929;28;6918;-72
2023/08/16 04:58:55;;;;;;;;;;;;;;;22.38;59.99;100856.44;4953636;28;7451;-72
2023/08/16 05:01:20;;;;;;;;;;;;;;;22.38;59.21;100857.31;4942479;28;6979;-72
2023/08/16 05:03:50;;;;;;;;;;;;;;;22.39;59.92;100858.19;4938874;28;6970;-72
2023/08/16 05:06:17;;;;;;;;;;;;;;;22.37;59.99;100858.19;4946703;28;6800;-72
2023/08/16 05:08:42;;;;;;;;;;;;;;;22.38;59.84;100859.03;4963238;28;6797;-72
2023/08/16 05:11:08;;;;;;;;;;;;;;;22.38;60.05;100864.25;4964978;28;7227;-72
2023/08/16 05:13:33;;;;;;;;;;;;;;;22.38;59.83;100864.25;4956912;28;6772;-72
2023/08/16 05:15:59;;;;;;;;;;;;;;;22.44;59.64;100866.94;4954068;28;6840;-72
2023/08/16 05:18:24;;;;;;;;;;;;;;;22.52;60.05;100862.66;4959467;28;6792;-72
2023/08/16 05:20:50;;;;;;;;;;;;;;;22.59;60.03;100858.34;4963331;28;6776;-72
2023/08/16 05:23:15;;;;;;;;;;;;;;;22.67;59.65;100855.75;4946961;28;6780;-72
2023/08/16 05:25:41;;;;;;;;;;;;;;;22.75;59.91;100854.94;4947656;28;7133;-72
2023/08/16 05:28:07;;;;;;;;;;;;;;;22.83;59.83;100851.47;4944239;28;6964;-72
2023/08/16 05:30:33;;;;;;;;;;;;;;;22.92;59.68;100850.66;4939549;28;7297;-72
2023/08/16 05:32:59;;;;;;;;;;;;;;;23.00;59.68;100857.66;4964917;28;6796;-72
2023/08/16 05:35:24;;;;;;;;;;;;;;;23.12;59.50;100862.06;4977618;28;6783;-72
2023/08/16 05:37:54;;;;;;;;;;;;;;;23.26;60.00;100862.09;4963677;28;6811;-72
2023/08/16 05:40:20;;;;;;;;;;;;;;;23.39;59.01;100862.16;4958616;28;7230;-72
2023/08/16 05:42:45;;;;;;;;;;;;;;;23.49;58.92;100870.91;4953576;28;6829;-71
2023/08/16 05:45:10;;;;;;;;;;;;;;;23.53;58.67;100867.41;4942097;28;6968;-72
2023/08/16 05:47:36;;;;;;;;;;;;;;;23.57;58.90;100882.25;4957524;28;6982;-72
2023/08/16 05:50:02;;;;;;;;;;;;;;;23.61;58.89;100883.09;4941381;28;7264;-71
2023/08/16 05:52:28;;;;;;;;;;;;;;;23.67;58.84;100894.47;4943627;28;7253;-72
2023/08/16 05:54:53;;;;;;;;;;;;;;;23.74;58.71;100889.22;4956208;28;6872;-72
2023/08/16 05:57:19;;;;;;;;;;;;;;;23.79;58.52;100888.38;4963662;28;6795;-72
2023/08/16 05:59:44;;;;;;;;;;;;;;;23.85;57.95;100888.38;4963456;28;6867;-72
2023/08/16 06:02:10;;;;;;;;;;;;;;;23.88;58.06;100882.28;4944237;28;7098;-72
2023/08/16 06:04:36;;;;;;;;;;;;;;;23.87;58.24;100883.16;4966213;28;7127;-72
2023/08/16 06:07:02;;;;;;;;;;;;;;;23.88;58.10;100892.75;4944021;28;7295;-72
2023/08/16 06:09:27;;;;;;;;;;;;;;;23.89;57.81;100891.88;4928128;28;7355;-72
2023/08/16 06:11:52;;;;;;;;;;;;;;;23.91;57.71;100899.75;4941390;28;7294;-72
2023/08/16 06:14:18;;;;;;;;;;;;;;;23.93;58.42;100893.59;4954845;28;7323;-71
2023/08/16 06:16:45;;;;;;;;;;;;;;;23.95;58.16;100893.63;4965667;28;7365;-72
2023/08/16 06:19:10;;;;;;;;;;;;;;;23.96;57.64;100898.88;4959903;28;6917;-72
2023/08/16 06:21:36;;;;;;;;;;;;;;;23.97;57.95;100900.59;4940497;28;7624;-71
2023/08/16 06:24:02;;;;;;;;;;;;;;;23.97;58.13;100905.84;4947545;28;7042;-72
2023/08/16 06:26:27;;;;;;;;;;;;;;;23.95;57.63;100899.75;4945007;28;7153;-72
2023/08/16 06:28:53;;;;;;;;;;;;;;;23.97;57.96;100900.59;4979485;28;7330;-72
2023/08/16 06:31:18;;;;;;;;;;;;;;;24.01;57.67;100906.72;4961581;28;7199;-71
2023/08/16 06:33:44;;;;;;;;;;;;;;;24.08;58.33;100905.00;4946786;28;6851;-72
2023/08/16 06:36:10;;;;;;;;;;;;;;;24.14;58.30;100907.59;4949521;28;7416;-72
2023/08/16 06:38:36;;;;;;;;;;;;;;;24.25;57.73;100902.38;4948583;28;6807;-72
2023/08/16 06:41:01;;;;;;;;;;;;;;;24.37;57.80;100912.81;4966354;28;6815;-72
2023/08/16 06:43:27;;;;;;;;;;;;;;;24.51;57.44;100902.31;4963276;28;6788;-72
2023/08/16 06:45:52;;;;;;;;;;;;;;;24.66;57.80;100904.03;4947923;28;6776;-72
2023/08/16 06:48:18;;;;;;;;;;;;;;;24.82;57.96;100904.91;4946860;28;6982;-72
2023/08/16 06:50:43;;;;;;;;;;;;;;;24.93;56.95;100896.16;4937787;28;7268;-72
2023/08/16 06:53:09;;;;;;;;;;;;;;;24.96;56.80;100897.00;4942192;28;8387;-72
2023/08/16 06:55:38;;;;;;;;;;;;;;;24.99;56.83;100893.47;4961906;28;7046;-72
2023/08/16 06:58:05;;;;;;;;;;;;;;;24.97;56.31;100905.72;4962478;28;6878;-72
2023/08/16 07:00:32;;;;;;;;;;;;;;;24.98;56.70;100906.63;4955961;28;7705;-72
2023/08/16 07:02:58;;;;;;;;;;;;;;;24.96;56.24;100907.50;4945142;28;7238;-72
2023/08/16 07:05:26;;;;;;;;;;;;;;;24.99;56.58;100911.81;4941402;28;7441;-72
2023/08/16 07:07:52;;;;;;;;;;;;;;;25.01;56.79;100915.31;4962782;28;7060;-72
2023/08/16 07:10:18;;;;;;;;;;;;;;;25.07;56.89;100924.94;4940951;28;7246;-72
2023/08/16 07:12:44;;;;;;;;;;;;;;;25.18;56.73;100922.25;4973767;28;7199;-72
2023/08/16 07:15:11;;;;;;;;;;;;;;;25.31;57.02;100923.06;4937331;28;7136;-72
2023/08/16 07:17:36;;;;;;;;;;;;;;;25.44;56.45;100923.88;4962607;28;6975;-72
2023/08/16 07:20:02;;;;;;;;;;;;;;;25.55;56.22;100911.59;4958894;28;6940;-72
2023/08/16 07:22:28;;;;;;;;;;;;;;;25.60;55.67;100908.94;4963398;28;7027;-72
2023/08/16 07:24:54;;;;;;;;;;;;;;;25.61;55.59;100913.31;4960891;28;7133;-73
2023/08/16 07:27:19;;;;;;;;;;;;;;;25.64;55.79;100927.28;4944108;28;6858;-72
2023/08/16 07:29:46;;;;;;;;;;;;;;;25.66;55.72;100927.28;4964218;28;6910;-72
2023/08/16 07:32:12;;;;;;;;;;;;;;;25.70;55.26;100938.63;4964539;28;7102;-72
2023/08/16 07:34:37;;;;;;;;;;;;;;;25.73;54.89;100933.34;4979654;28;7080;-72
2023/08/16 07:37:03;;;;;;;;;;;;;;;25.70;54.79;100936.88;4965319;28;7122;-73
2023/08/16 07:39:31;;;;;;;;;;;;;;;25.63;54.51;100930.78;4960741;28;6867;-72
2023/08/16 07:41:56;;;;;;;;;;;;;;;25.59;54.38;100933.44;4962997;28;6816;-73
2023/08/16 07:44:22;;;;;;;;;;;;;;;25.56;54.83;100936.94;4948848;28;7080;-72
2023/08/16 07:46:47;;;;;;;;;;;;;;;25.53;55.04;100934.34;4945985;28;6808;-72
2023/08/16 07:49:13;;;;;;;;;;;;;;;25.53;54.82;100939.59;4960715;28;6863;-73
2023/08/16 07:51:38;;;;;;;;;;;;;;;25.57;55.18;100950.94;4942736;28;6855;-72
2023/08/16 07:54:04;;;;;;;;;;;;;;;25.67;54.88;100949.13;4946020;28;6874;-73
2023/08/16 07:56:29;;;;;;;;;;;;;;;25.77;54.74;100943.81;4958093;28;7813;-73
2023/08/16 07:58:55;;;;;;;;;;;;;;;25.88;54.40;100941.13;4958284;28;6960;-73
2023/08/16 08:01:20;;;;;;;;;;;;;;;25.97;54.38;100934.94;4960992;28;6795;-72
2023/08/16 08:03:46;;;;;;;;;;;;;;;26.09;54.84;100927.84;4962701;28;6780;-73
2023/08/16 08:06:12;;;;;;;;;;;;;;;26.24;54.37;100938.25;4965526;28;6984;-73
2023/08/16 08:08:37;;;;;;;;;;;;;;;26.38;54.70;100942.50;4981378;28;6780;-73
2023/08/16 08:11:06;;;;;;;;;;;;;;;26.54;54.18;100945.84;4946902;28;6804;-72
2023/08/16 08:13:32;;;;;;;;;;;;;;;26.70;53.79;100949.19;4954277;28;7180;-73
2023/08/16 08:15:57;;;;;;;;;;;;;;;26.84;53.25;100943.78;4945044;28;6951;-73
2023/08/16 08:18:23;;;;;;;;;;;;;;;26.93;52.95;100946.34;4944956;28;6971;-73
2023/08/16 08:20:48;;;;;;;;;;;;;;;26.95;52.44;100952.47;4963970;28;7077;-72
2023/08/16 08:23:15;;;;;;;;;;;;;;;26.96;52.42;100941.06;4963582;28;7240;-73
2023/08/16 08:25:42;;;;;;;;;;;;;;;26.97;52.21;100945.44;4964060;28;6792;-72
2023/08/16 08:28:08;;;;;;;;;;;;;;;26.94;52.29;100948.06;4957087;28;6867;-72
2023/08/16 08:30:34;;;;;;;;;;;;;;;26.90;51.89;100949.00;4942758;28;6946;-73
2023/08/16 08:33:00;;;;;;;;;;;;;;;26.88;52.27;100951.66;4954918;28;7275;-73
2023/08/16 08:35:25;;;;;;;;;;;;;;;26.88;51.99;100956.06;4944701;28;6996;-72
2023/08/16 08:37:51;;;;;;;;;;;;;;;26.89;51.90;100953.38;4967062;28;6791;-73
2023/08/16 08:40:18;;;;;;;;;;;;;;;26.89;51.78;100958.66;4933769;28;7288;-70
2023/08/16 08:42:49;;;;;;;;;;;;;;;26.87;51.91;100954.28;4954472;28;6812;-68
2023/08/16 08:45:15;;;;;;;;;;;;;;;26.84;52.16;100956.91;4958425;28;7245;-70
2023/08/16 08:47:43;;;;;;;;;;;;;;;26.80;51.83;100952.59;4976997;28;6872;-71
2023/08/16 08:50:09;;;;;;;;;;;;;;;26.76;52.21;100959.66;4944813;28;6867;-71
2023/08/16 08:52:34;;;;;;;;;;;;;;;26.73;51.71;100955.28;4963130;28;6795;-72
2023/08/16 08:55:00;;;;;;;;;;;;;;;26.70;52.16;100952.69;4945688;28;6982;-72
2023/08/16 08:57:28;;;;;;;;;;;;;;;26.72;52.23;100957.94;4943151;28;6859;-70
2023/08/16 08:59:57;;;;;;;;;;;;;;;26.75;52.04;100952.66;4944666;28;7009;-71
2023/08/16 09:02:23;;;;;;;;;;;;;;;26.80;52.32;100952.59;4946252;28;7402;-70
2023/08/16 09:04:51;;;;;;;;;;;;;;;26.83;52.32;100961.31;4941501;28;7206;-72
2023/08/16 09:07:17;;;;;;;;;;;;;;;26.89;52.04;100957.78;4975678;28;6947;-69
2023/08/16 09:09:48;;;;;;;;;;;;;;;26.95;51.96;100960.34;4945174;28;6953;-71
2023/08/16 09:12:14;;;;;;;;;;;;;;;27.03;51.67;100966.38;4961536;28;6820;-69
2023/08/16 09:14:40;;;;;;;;;;;;;;;27.09;52.07;100951.44;4945049;28;7115;-69
2023/08/16 09:17:06;;;;;;;;;;;;;;;27.14;51.42;100961.00;4946211;28;6954;-69
2023/08/16 09:19:32;;;;;;;;;;;;;;;27.20;51.63;100949.53;4963086;28;6975;-70
2023/08/16 09:21:57;;;;;;;;;;;;;;;27.23;51.58;100962.63;4975557;28;6800;-70
2023/08/16 09:24:26;;;;;;;;;;;;;;;27.27;51.65;100958.19;4945729;28;7019;-71
2023/08/16 09:26:52;;;;;;;;;;;;;;;27.29;51.74;100946.78;4953911;28;6812;-71
2023/08/16 09:29:18;;;;;;;;;;;;;;;27.34;51.64;100949.34;4940267;28;7000;-70
2023/08/16 09:31:45;;;;;;;;;;;;;;;27.37;51.58;100944.03;4956238;28;9986;-71
2023/08/16 09:34:13;;;;;;;;;;;;;;;27.47;51.46;100954.44;4962003;28;6808;-70
2023/08/16 09:36:41;;;;;;;;;;;;;;;27.64;51.40;100946.34;4920036;28;6851;-70
2023/08/16 09:39:11;;;;;;;;;;;;;;;27.90;51.58;100942.44;4944540;28;7066;-71
2023/08/16 09:41:49;;;;;;;;;;;;;;;28.27;50.94;100952.41;4962194;28;7124;-70
2023/08/16 09:44:15;;;;;;;;;;;;;;;28.70;50.33;100948.13;4977074;28;7353;-69
2023/08/16 09:46:41;;;;;;;;;;;;;;;29.12;49.98;100947.31;4961814;28;6929;-69
2023/08/16 09:49:08;;;;;;;;;;;;;;;29.42;49.36;100938.78;4955525;28;7403;-69
2023/08/16 09:51:36;;;;;;;;;;;;;;;29.54;49.06;100938.53;4943315;28;6855;-69
2023/08/16 09:54:03;;;;;;;;;;;;;;;29.51;48.16;100936.81;4963782;28;6868;-72
2023/08/16 09:56:32;;;;;;;;;;;;;;;29.32;47.81;100938.09;4957024;28;7209;-71
2023/08/16 09:58:59;;;;;;;;;;;;;;;29.08;47.78;100927.19;4949779;28;6811;-69
2023/08/16 10:01:24;;;;;;;;;;;;;;;28.94;48.29;100941.50;4944785;28;7110;-70
2023/08/16 10:03:54;;;;;;;;;;;;;;;28.81;48.18;100940.00;4983511;28;6975;-69
2023/08/16 10:06:23;;;;;;;;;;;;;;;28.69;48.25;100944.63;4967217;28;6807;-70
2023/08/16 10:08:52;;;;;;;;;;;;;;;28.65;48.83;100940.28;4969324;28;6999;-70
2023/08/16 10:11:18;;;;;;;;;;;;;;;28.68;48.67;100942.88;4963803;28;6999;-69
2023/08/16 10:13:44;;;;;;;;;;;;;;;28.67;49.03;100935.84;4942674;28;6894;-69
2023/08/16 10:16:14;;;;;;;;;;;;;;;28.64;48.72;100946.47;4981460;28;6804;-69
2023/08/16 10:18:43;;;;;;;;;;;;;;;28.63;48.89;100934.19;4947189;28;6792;-69
2023/08/16 10:21:14;;;;;;;;;;;;;;;28.59;49.18;100935.16;4977916;28;6994;-72
2023/08/16 10:23:41;;;;;;;;;;;;;;;28.52;48.49;100936.16;4965504;28;7230;-71
2023/08/16 10:26:17;;;;;;;;;;;;;;;28.53;49.06;100937.91;4979220;28;6977;-70
2023/08/16 10:28:47;;;;;;;;;;;;;;;28.56;48.66;100932.56;4945363;28;7366;-72
2023/08/16 10:31:16;;;;;;;;;;;;;;;28.64;49.55;100930.66;4947481;28;6804;-70
2023/08/16 10:33:46;;;;;;;;;;;;;;;28.71;48.66;100941.94;4944706;28;6811;-69
2023/08/16 10:36:13;;;;;;;;;;;;;;;28.76;48.98;100941.84;4980581;28;6860;-71
2023/08/16 10:38:44;;;;;;;;;;;;;;;28.76;48.44;100940.09;4957556;28;7141;-70
2023/08/16 10:41:14;;;;;;;;;;;;;;;28.69;48.31;100936.72;4962597;28;7074;-69
2023/08/16 10:43:46;;;;;;;;;;;;;;;28.60;49.26;100939.53;4944598;28;6973;-69
2023/08/16 10:46:12;;;;;;;;;;;;;;;28.53;49.19;100937.91;4948700;28;6842;-69
2023/08/16 10:48:38;;;;;;;;;;;;;;;28.52;49.11;100931.75;4979319;28;7109;-71
2023/08/16 10:51:06;;;;;;;;;;;;;;;28.53;48.85;100940.53;4963129;28;6800;-69
2023/08/16 10:53:33;;;;;;;;;;;;;;;28.54;49.31;100929.97;4945321;28;7127;-72
2023/08/16 10:56:04;;;;;;;;;;;;;;;28.59;48.93;100926.38;4962973;28;6864;-69
2023/08/16 10:58:29;;;;;;;;;;;;;;;28.72;49.53;100930.50;4948791;28;6800;-72
2023/08/16 11:00:59;;;;;;;;;;;;;;;28.91;49.47;100928.41;4966159;28;6788;-70
2023/08/16 11:03:33;;;;;;;;;;;;;;;29.17;48.64;100929.63;4946266;28;6800;-71
2023/08/16 11:06:00;;;;;;;;;;;;;;;29.34;48.66;100931.91;4962703;28;6983;-69
2023/08/16 11:08:32;;;;;;;;;;;;;;;29.41;47.62;100927.34;4961521;28;6800;-71
2023/08/16 11:11:00;;;;;;;;;;;;;;;29.50;48.07;100926.28;4940993;28;7080;-71
2023/08/16 11:13:28;;;;;;;;;;;;;;;29.57;47.48;100933.16;4960769;28;6836;-70
2023/08/16 11:15:54;;;;;;;;;;;;;;;29.69;47.64;100939.06;4964584;28;6799;-69
2023/08/16 11:18:29;;;;;;;;;;;;;;;29.69;46.85;100925.84;4967331;28;7140;-69
2023/08/16 11:20:55;;;;;;;;;;;;;;;29.59;47.62;100931.34;4948141;28;7015;-69
2023/08/16 11:23:21;;;;;;;;;;;;;;;29.41;47.03;100929.97;4963035;28;6843;-69
2023/08/16 11:25:47;;;;;;;;;;;;;;;29.18;47.05;100926.09;4947934;28;6880;-69
2023/08/16 11:28:17;;;;;;;;;;;;;;;28.92;47.45;100924.84;4963109;28;6864;-69
2023/08/16 11:30:43;;;;;;;;;;;;;;;28.68;48.30;100940.25;4962179;28;6863;-72
2023/08/16 11:33:15;;;;;;;;;;;;;;;28.50;48.50;100933.53;4960477;28;6982;-69
2023/08/16 11:35:41;;;;;;;;;;;;;;;28.39;48.98;100936.41;4943767;28;6888;-71
2023/08/16 11:38:07;;;;;;;;;;;;;;;28.27;48.98;100924.28;4942580;28;7221;-70
2023/08/16 11:40:32;;;;;;;;;;;;;;;28.19;49.07;100915.66;4959754;28;6796;-72
2023/08/16 11:43:04;;;;;;;;;;;;;;;28.15;49.50;100916.56;4962387;28;7207;-70
2023/08/16 11:45:29;;;;;;;;;;;;;;;28.09;49.54;100914.91;4945575;28;6824;-69
2023/08/16 11:47:55;;;;;;;;;;;;;;;28.08;49.91;100928.97;4943976;28;6980;-71
2023/08/16 11:50:24;;;;;;;;;;;;;;;28.08;49.52;100915.78;4945779;28;7187;-72
2023/08/16 11:53:03;;;;;;;;;;;;;;;28.17;50.40;100921.81;4945914;28;6851;-71
2023/08/16 11:55:29;;;;;;;;;;;;;;;28.36;50.62;100920.63;4939380;28;7537;-70
2023/08/16 11:58:08;;;;;;;;;;;;;;;28.55;49.79;100915.00;4947594;28;7242;-71
2023/08/16 12:00:35;;;;;;;;;;;;;;;28.71;49.39;100917.34;4959094;28;7220;-72
2023/08/16 12:03:11;;;;;;;;;;;;;;;28.82;49.14;100915.38;4948046;28;7018;-72
2023/08/16 12:05:38;;;;;;;;;;;;;;;28.91;49.58;100911.69;4945670;28;6888;-70
2023/08/16 12:08:06;;;;;;;;;;;;;;;28.95;48.78;100919.50;4948079;28;6887;-72
2023/08/16 12:10:34;;;;;;;;;;;;;;;28.95;48.99;100922.16;4961234;28;7219;-71
2023/08/16 12:13:11;;;;;;;;;;;;;;;28.88;48.14;100912.66;4963850;28;7048;-72
2023/08/16 12:15:37;;;;;;;;;;;;;;;28.78;48.69;100919.81;4961873;28;6954;-69
2023/08/16 12:18:02;;;;;;;;;;;;;;;28.66;48.42;100918.28;4960285;28;6979;-70
2023/08/16 12:20:29;;;;;;;;;;;;;;;28.59;48.39;100914.06;4944895;28;6780;-72
2023/08/16 12:22:54;;;;;;;;;;;;;;;28.51;49.02;100911.56;4980219;28;6808;-69
2023/08/16 12:25:20;;;;;;;;;;;;;;;28.46;49.06;100909.91;4945499;28;6984;-71
2023/08/16 12:27:45;;;;;;;;;;;;;;;28.37;48.54;100905.69;4959999;28;7202;-69
2023/08/16 12:30:11;;;;;;;;;;;;;;;28.32;49.31;100905.75;4960208;28;7113;-71
2023/08/16 12:32:37;;;;;;;;;;;;;;;28.40;49.39;100901.22;4955851;28;7042;-70
2023/08/16 12:35:03;;;;;;;;;;;;;;;28.48;49.85;100892.28;4944264;28;8004;-70
2023/08/16 12:37:28;;;;;;;;;;;;;;;28.50;49.00;100895.78;4941450;28;6784;-70
2023/08/16 12:39:54;;;;;;;;;;;;;;;28.52;48.89;100899.25;4975829;28;6775;-70
2023/08/16 12:42:19;;;;;;;;;;;;;;;28.48;48.58;100897.56;4978809;28;6787;-71
2023/08/16 12:44:45;;;;;;;;;;;;;;;28.43;49.46;100895.00;4965165;28;6768;-72